sensor_id;sensor_type;location;lat;lon;timestamp;pressure;altitude;pressure_sealevel;temperature;humidity
40245;BME280;25963;42.694;23.600;2023-04-05T00:00:37;94685.94;;;0.60;100.00
40245;BME280;25963;42.694;23.600;2023-04-05T00:03:03;94673.94;;;0.51;100.00
40245;BME280;25963;42.694;23.600;2023-04-05T00:05:28;94666.56;;;0.39;100.00
40245;BME280;25963;42.694;23.600;2023-04-05T00:08:02;94683.19;;;0.53;100.00
40245;BME280;25963;42.694;23.600;2023-04-05T00:10:29;94687.59;;;0.53;100.00
40245;BME280;25963;42.694;23.600;2023-04-05T00:12:55;94649.84;;;0.42;100.00
40245;BME280;25963;42.694;23.600;2023-04-05T00:15:21;94686.56;;;0.62;100.00
40245;BME280;25963;42.694;23.600;2023-04-05T00:17:46;94650.09;;;0.55;100.00
40245;BME280;25963;42.694;23.600;2023-04-05T00:20:12;94660.97;;;0.51;100.00
40245;BME280;25963;42.694;23.600;2023-04-05T00:22:39;94653.25;;;0.34;100.00
40245;BME280;25963;42.694;23.600;2023-04-05T00:25:06;94659.38;;;0.41;100.00
40245;BME280;25963;42.694;23.600;2023-04-05T00:27:31;94653.72;;;0.46;100.00
40245;BME280;25963;42.694;23.600;2023-04-05T00:29:57;94678.00;;;0.53;100.00
40245;BME280;25963;42.694;23.600;2023-04-05T00:32:22;94673.34;;;0.40;100.00
40245;BME280;25963;42.694;23.600;2023-04-05T00:34:48;94666.22;;;0.42;100.00
40245;BME280;25963;42.694;23.600;2023-04-05T00:37:14;94684.03;;;0.45;100.00
40245;BME280;25963;42.694;23.600;2023-04-05T00:39:39;94683.66;;;0.57;100.00
40245;BME280;25963;42.694;23.600;2023-04-05T00:42:06;94661.69;;;0.36;100.00
40245;BME280;25963;42.694;23.600;2023-04-05T00:44:32;94674.44;;;0.54;100.00
40245;BME280;25963;42.694;23.600;2023-04-05T00:47:04;94683.16;;;0.70;100.00
40245;BME280;25963;42.694;23.600;2023-04-05T00:49:31;94696.75;;;0.72;100.00
40245;BME280;25963;42.694;23.600;2023-04-05T00:51:57;94683.38;;;0.52;100.00
40245;BME280;25963;42.694;23.600;2023-04-05T00:54:27;94689.84;;;0.56;100.00
40245;BME280;25963;42.694;23.600;2023-04-05T00:56:58;94688.81;;;0.73;100.00
40245;BME280;25963;42.694;23.600;2023-04-05T00:59:24;94689.66;;;0.65;100.00
40245;BME280;25963;42.694;23.600;2023-04-05T01:01:56;94698.53;;;0.79;100.00
40245;BME280;25963;42.694;23.600;2023-04-05T01:04:26;94689.81;;;0.64;100.00
40245;BME280;25963;42.694;23.600;2023-04-05T01:12:08;94699.19;;;0.81;100.00
40245;BME280;25963;42.694;23.600;2023-04-05T01:14:44;94699.50;;;0.78;100.00
40245;BME280;25963;42.694;23.600;2023-04-05T01:17:10;94687.72;;;0.59;100.00
40245;BME280;25963;42.694;23.600;2023-04-05T01:19:36;94692.56;;;0.62;100.00
40245;BME280;25963;42.694;23.600;2023-04-05T01:30:36;94697.81;;;0.46;100.00
40245;BME280;25963;42.694;23.600;2023-04-05T01:35:39;94678.88;;;0.29;100.00
40245;BME280;25963;42.694;23.600;2023-04-05T01:38:08;94672.41;;;0.33;100.00
40245;BME280;25963;42.694;23.600;2023-04-05T01:40:35;94694.91;;;0.41;100.00
40245;BME280;25963;42.694;23.600;2023-04-05T01:43:11;94706.38;;;0.63;100.00
40245;BME280;25963;42.694;23.600;2023-04-05T01:45:37;94707.22;;;0.55;100.00
40245;BME280;25963;42.694;23.600;2023-04-05T01:48:02;94706.19;;;0.73;100.00
40245;BME280;25963;42.694;23.600;2023-04-05T01:50:28;94674.16;;;0.33;100.00
40245;BME280;25963;42.694;23.600;2023-04-05T01:52:53;94682.91;;;0.40;100.00
40245;BME280;25963;42.694;23.600;2023-04-05T01:55:19;94704.75;;;0.54;100.00
40245;BME280;25963;42.694;23.600;2023-04-05T01:57:44;94693.56;;;0.53;100.00
40245;BME280;25963;42.694;23.600;2023-04-05T02:00:10;94691.50;;;0.49;100.00
40245;BME280;25963;42.694;23.600;2023-04-05T02:02:36;94712.84;;;0.67;100.00
40245;BME280;25963;42.694;23.600;2023-04-05T02:05:01;94715.66;;;0.57;100.00
40245;BME280;25963;42.694;23.600;2023-04-05T02:07:27;94700.88;;;0.58;100.00
40245;BME280;25963;42.694;23.600;2023-04-05T02:09:52;94697.66;;;0.48;100.00
40245;BME280;25963;42.694;23.600;2023-04-05T02:12:18;94707.69;;;0.59;100.00
40245;BME280;25963;42.694;23.600;2023-04-05T02:14:43;94719.53;;;0.53;100.00
40245;BME280;25963;42.694;23.600;2023-04-05T02:17:09;94709.00;;;0.47;100.00
40245;BME280;25963;42.694;23.600;2023-04-05T02:19:34;94700.91;;;0.41;100.00
40245;BME280;25963;42.694;23.600;2023-04-05T02:22:05;94687.97;;;0.33;100.00
40245;BME280;25963;42.694;23.600;2023-04-05T02:24:31;94704.75;;;0.54;100.00
40245;BME280;25963;42.694;23.600;2023-04-05T02:26:57;94698.94;;;0.52;100.00
40245;BME280;25963;42.694;23.600;2023-04-05T02:29:22;94696.06;;;0.38;100.00
40245;BME280;25963;42.694;23.600;2023-04-05T02:31:48;94701.69;;;0.58;100.00
40245;BME280;25963;42.694;23.600;2023-04-05T02:34:13;94701.06;;;0.48;100.00
40245;BME280;25963;42.694;23.600;2023-04-05T02:36:39;94693.28;;;0.48;100.00
40245;BME280;25963;42.694;23.600;2023-04-05T02:39:06;94673.22;;;0.26;100.00
40245;BME280;25963;42.694;23.600;2023-04-05T02:41:31;94715.81;;;0.48;100.00
40245;BME280;25963;42.694;23.600;2023-04-05T02:43:57;94701.59;;;0.27;100.00
40245;BME280;25963;42.694;23.600;2023-04-05T02:46:24;94685.38;;;0.25;100.00
40245;BME280;25963;42.694;23.600;2023-04-05T02:48:49;94692.03;;;0.19;100.00
40245;BME280;25963;42.694;23.600;2023-04-05T02:51:15;94703.97;;;0.53;100.00
40245;BME280;25963;42.694;23.600;2023-04-05T02:53:40;94705.31;;;0.33;100.00
40245;BME280;25963;42.694;23.600;2023-04-05T02:56:06;94690.53;;;0.41;100.00
40245;BME280;25963;42.694;23.600;2023-04-05T02:58:32;94719.38;;;0.55;100.00
40245;BME280;25963;42.694;23.600;2023-04-05T03:00:58;94704.63;;;0.47;100.00
40245;BME280;25963;42.694;23.600;2023-04-05T03:03:25;94688.00;;;0.17;100.00
40245;BME280;25963;42.694;23.600;2023-04-05T03:05:58;94720.34;;;0.54;100.00
40245;BME280;25963;42.694;23.600;2023-04-05T03:08:26;94717.59;;;0.47;100.00
40245;BME280;25963;42.694;23.600;2023-04-05T03:10:53;94721.66;;;0.58;100.00
40245;BME280;25963;42.694;23.600;2023-04-05T03:13:18;94726.84;;;0.58;100.00
40245;BME280;25963;42.694;23.600;2023-04-05T03:15:44;94729.75;;;0.63;100.00
40245;BME280;25963;42.694;23.600;2023-04-05T03:18:09;94721.66;;;0.58;100.00
40245;BME280;25963;42.694;23.600;2023-04-05T03:20:36;94704.69;;;0.31;100.00
40245;BME280;25963;42.694;23.600;2023-04-05T03:23:07;94730.06;;;0.60;100.00
40245;BME280;25963;42.694;23.600;2023-04-05T03:25:34;94715.44;;;0.67;100.00
40245;BME280;25963;42.694;23.600;2023-04-05T03:28:04;94704.75;;;0.54;100.00
40245;BME280;25963;42.694;23.600;2023-04-05T03:30:33;94710.00;;;0.45;100.00
40245;BME280;25963;42.694;23.600;2023-04-05T03:33:00;94692.31;;;0.33;100.00
40245;BME280;25963;42.694;23.600;2023-04-05T03:35:28;94689.13;;;0.22;100.00
40245;BME280;25963;42.694;23.600;2023-04-05T03:37:54;94690.56;;;0.25;100.00
40245;BME280;25963;42.694;23.600;2023-04-05T03:40:21;94716.50;;;0.33;100.00
40245;BME280;25963;42.694;23.600;2023-04-05T03:42:47;94710.66;;;0.31;100.00
40245;BME280;25963;42.694;23.600;2023-04-05T03:45:12;94715.38;;;0.28;100.00
40245;BME280;25963;42.694;23.600;2023-04-05T03:47:38;94690.91;;;0.06;100.00
40245;BME280;25963;42.694;23.600;2023-04-05T03:50:04;94721.38;;;0.28;100.00
40245;BME280;25963;42.694;23.600;2023-04-05T03:52:30;94727.84;;;0.32;100.00
40245;BME280;25963;42.694;23.600;2023-04-05T03:54:55;94722.00;;;0.38;100.00
40245;BME280;25963;42.694;23.600;2023-04-05T03:57:20;94722.66;;;0.32;100.00
40245;BME280;25963;42.694;23.600;2023-04-05T03:59:46;94723.94;;;0.44;100.00
40245;BME280;25963;42.694;23.600;2023-04-05T04:02:12;94721.03;;;0.39;100.00
40245;BME280;25963;42.694;23.600;2023-04-05T04:04:37;94718.44;;;0.39;100.00
40245;BME280;25963;42.694;23.600;2023-04-05T04:07:03;94716.34;;;0.35;100.00
40245;BME280;25963;42.694;23.600;2023-04-05T04:09:28;94735.97;;;0.37;100.00
40245;BME280;25963;42.694;23.600;2023-04-05T04:11:54;94729.81;;;0.30;100.00
40245;BME280;25963;42.694;23.600;2023-04-05T04:14:21;94741.13;;;0.45;100.00
40245;BME280;25963;42.694;23.600;2023-04-05T04:16:46;94746.78;;;0.57;100.00
40245;BME280;25963;42.694;23.600;2023-04-05T04:19:12;94727.19;;;0.47;100.00
40245;BME280;25963;42.694;23.600;2023-04-05T04:21:37;94744.69;;;0.53;100.00
40245;BME280;25963;42.694;23.600;2023-04-05T04:24:04;94711.81;;;0.29;100.00
40245;BME280;25963;42.694;23.600;2023-04-05T04:26:30;94735.16;;;0.37;100.00
40245;BME280;25963;42.694;23.600;2023-04-05T04:29:01;94717.81;;;0.29;100.00
40245;BME280;25963;42.694;23.600;2023-04-05T04:31:27;94720.25;;;0.31;100.00
40245;BME280;25963;42.694;23.600;2023-04-05T04:33:53;94707.13;;;0.16;100.00
40245;BME280;25963;42.694;23.600;2023-04-05T04:36:19;94718.78;;;0.20;100.00
40245;BME280;25963;42.694;23.600;2023-04-05T04:38:59;94722.88;;;0.06;100.00
40245;BME280;25963;42.694;23.600;2023-04-05T04:41:26;94739.53;;;0.20;100.00
40245;BME280;25963;42.694;23.600;2023-04-05T04:43:52;94754.44;;;0.42;100.00
40245;BME280;25963;42.694;23.600;2023-04-05T04:46:19;94737.75;;;0.37;100.00
40245;BME280;25963;42.694;23.600;2023-04-05T04:48:45;94728.22;;;0.21;100.00
40245;BME280;25963;42.694;23.600;2023-04-05T04:51:11;94730.63;;;0.14;100.00
40245;BME280;25963;42.694;23.600;2023-04-05T04:53:37;94740.53;;;0.27;100.00
40245;BME280;25963;42.694;23.600;2023-04-05T04:56:06;94755.72;;;0.55;100.00
40245;BME280;25963;42.694;23.600;2023-04-05T04:58:32;94756.97;;;0.67;100.00
40245;BME280;25963;42.694;23.600;2023-04-05T05:00:58;94772.75;;;0.49;100.00
40245;BME280;25963;42.694;23.600;2023-04-05T05:03:24;94769.19;;;0.50;100.00
40245;BME280;25963;42.694;23.600;2023-04-05T05:05:49;94768.03;;;0.61;100.00
40245;BME280;25963;42.694;23.600;2023-04-05T05:08:15;94756.19;;;0.50;100.00
40245;BME280;25963;42.694;23.600;2023-04-05T05:10:41;94766.38;;;0.68;100.00
40245;BME280;25963;42.694;23.600;2023-04-05T05:13:07;94769.00;;;0.60;100.00
40245;BME280;25963;42.694;23.600;2023-04-05T05:15:33;94764.63;;;0.60;100.00
40245;BME280;25963;42.694;23.600;2023-04-05T05:17:59;94781.66;;;0.63;100.00
40245;BME280;25963;42.694;23.600;2023-04-05T05:20:24;94761.19;;;0.68;100.00
40245;BME280;25963;42.694;23.600;2023-04-05T05:22:51;94766.69;;;0.73;100.00
40245;BME280;25963;42.694;23.600;2023-04-05T05:25:17;94763.78;;;0.68;100.00
40245;BME280;25963;42.694;23.600;2023-04-05T05:27:42;94757.44;;;0.79;100.00
40245;BME280;25963;42.694;23.600;2023-04-05T05:30:08;94754.19;;;0.85;100.00
40245;BME280;25963;42.694;23.600;2023-04-05T05:32:34;94771.16;;;0.96;100.00
40245;BME280;25963;42.694;23.600;2023-04-05T05:34:59;94780.84;;;1.18;100.00
40245;BME280;25963;42.694;23.600;2023-04-05T05:37:32;94747.94;;;1.02;100.00
40245;BME280;25963;42.694;23.600;2023-04-05T05:39:58;94781.78;;;1.25;100.00
40245;BME280;25963;42.694;23.600;2023-04-05T05:42:24;94788.28;;;1.21;100.00
40245;BME280;25963;42.694;23.600;2023-04-05T05:44:50;94766.53;;;1.22;100.00
40245;BME280;25963;42.694;23.600;2023-04-05T05:47:15;94780.94;;;1.33;100.00
40245;BME280;25963;42.694;23.600;2023-04-05T05:49:41;94781.59;;;1.35;100.00
40245;BME280;25963;42.694;23.600;2023-04-05T05:52:06;94775.44;;;1.28;100.00
40245;BME280;25963;42.694;23.600;2023-04-05T05:54:32;94776.22;;;1.36;100.00
40245;BME280;25963;42.694;23.600;2023-04-05T05:56:57;94779.19;;;1.25;100.00
40245;BME280;25963;42.694;23.600;2023-04-05T05:59:23;94776.06;;;1.38;100.00
40245;BME280;25963;42.694;23.600;2023-04-05T06:01:48;94762.16;;;1.23;100.00
40245;BME280;25963;42.694;23.600;2023-04-05T06:04:15;94775.53;;;1.43;100.00
40245;BME280;25963;42.694;23.600;2023-04-05T06:06:41;94771.13;;;1.43;100.00
40245;BME280;25963;42.694;23.600;2023-04-05T06:09:08;94781.81;;;1.56;100.00
40245;BME280;25963;42.694;23.600;2023-04-05T06:11:34;94757.00;;;1.46;100.00
40245;BME280;25963;42.694;23.600;2023-04-05T06:14:00;94785.44;;;1.47;100.00
40245;BME280;25963;42.694;23.600;2023-04-05T06:16:26;94787.78;;;1.65;100.00
40245;BME280;25963;42.694;23.600;2023-04-05T06:18:51;94800.34;;;1.76;100.00
40245;BME280;25963;42.694;23.600;2023-04-05T06:21:16;94777.72;;;1.62;100.00
40245;BME280;25963;42.694;23.600;2023-04-05T06:23:42;94804.81;;;1.91;100.00
40245;BME280;25963;42.694;23.600;2023-04-05T06:26:18;94806.69;;;2.05;100.00
40245;BME280;25963;42.694;23.600;2023-04-05T06:28:48;94806.34;;;2.08;100.00
40245;BME280;25963;42.694;23.600;2023-04-05T06:31:15;94806.25;;;2.01;100.00
40245;BME280;25963;42.694;23.600;2023-04-05T06:33:42;94802.59;;;2.11;100.00
40245;BME280;25963;42.694;23.600;2023-04-05T06:36:07;94806.53;;;2.07;100.00
40245;BME280;25963;42.694;23.600;2023-04-05T06:38:33;94788.47;;;2.28;100.00
40245;BME280;25963;42.694;23.600;2023-04-05T06:40:58;94797.59;;;2.24;100.00
40245;BME280;25963;42.694;23.600;2023-04-05T06:43:24;94814.25;;;2.15;100.00
40245;BME280;25963;42.694;23.600;2023-04-05T06:45:49;94802.81;;;2.01;100.00
40245;BME280;25963;42.694;23.600;2023-04-05T06:48:15;94806.00;;;2.34;100.00
40245;BME280;25963;42.694;23.600;2023-04-05T06:50:40;94827.56;;;2.43;100.00
40245;BME280;25963;42.694;23.600;2023-04-05T06:53:06;94812.66;;;2.37;100.00
40245;BME280;25963;42.694;23.600;2023-04-05T06:55:32;94820.38;;;2.45;100.00
40245;BME280;25963;42.694;23.600;2023-04-05T06:57:57;94828.47;;;2.50;100.00
40245;BME280;25963;42.694;23.600;2023-04-05T07:00:23;94825.47;;;2.61;100.00
40245;BME280;25963;42.694;23.600;2023-04-05T07:02:48;94815.03;;;2.61;100.00
40245;BME280;25963;42.694;23.600;2023-04-05T07:05:14;94826.97;;;2.56;100.00
40245;BME280;25963;42.694;23.600;2023-04-05T07:07:41;94818.91;;;2.65;100.00
40245;BME280;25963;42.694;23.600;2023-04-05T07:10:09;94836.31;;;2.65;100.00
40245;BME280;25963;42.694;23.600;2023-04-05T07:12:34;94839.88;;;2.87;100.00
40245;BME280;25963;42.694;23.600;2023-04-05T07:15:00;94832.59;;;2.82;100.00
40245;BME280;25963;42.694;23.600;2023-04-05T07:17:26;94842.13;;;3.05;100.00
40245;BME280;25963;42.694;23.600;2023-04-05T07:19:52;94841.72;;;2.78;100.00
40245;BME280;25963;42.694;23.600;2023-04-05T07:22:17;94856.34;;;2.87;100.00
40245;BME280;25963;42.694;23.600;2023-04-05T07:24:46;94864.66;;;2.83;100.00
40245;BME280;25963;42.694;23.600;2023-04-05T07:27:12;94850.63;;;2.84;100.00
40245;BME280;25963;42.694;23.600;2023-04-05T07:29:39;94842.69;;;2.62;100.00
40245;BME280;25963;42.694;23.600;2023-04-05T07:32:07;94855.66;;;2.70;100.00
40245;BME280;25963;42.694;23.600;2023-04-05T07:34:33;94838.22;;;2.71;100.00
40245;BME280;25963;42.694;23.600;2023-04-05T07:36:59;94862.13;;;2.74;100.00
40245;BME280;25963;42.694;23.600;2023-04-05T07:39:25;94867.75;;;3.01;100.00
40245;BME280;25963;42.694;23.600;2023-04-05T07:41:50;94866.91;;;2.86;100.00
40245;BME280;25963;42.694;23.600;2023-04-05T07:44:16;94863.88;;;2.97;100.00
40245;BME280;25963;42.694;23.600;2023-04-05T07:46:41;94860.13;;;3.00;100.00
40245;BME280;25963;42.694;23.600;2023-04-05T07:49:13;94856.28;;;2.72;100.00
40245;BME280;25963;42.694;23.600;2023-04-05T07:51:38;94874.72;;;2.86;100.00
40245;BME280;25963;42.694;23.600;2023-04-05T07:54:05;94886.75;;;2.87;100.00
40245;BME280;25963;42.694;23.600;2023-04-05T07:56:31;94874.91;;;2.99;100.00
40245;BME280;25963;42.694;23.600;2023-04-05T07:58:59;94881.56;;;3.02;100.00
40245;BME280;25963;42.694;23.600;2023-04-05T08:01:25;94877.47;;;3.22;100.00
40245;BME280;25963;42.694;23.600;2023-04-05T08:03:55;94882.03;;;3.20;100.00
40245;BME280;25963;42.694;23.600;2023-04-05T08:06:23;94893.69;;;3.47;100.00
40245;BME280;25963;42.694;23.600;2023-04-05T08:08:51;94897.97;;;3.40;100.00
40245;BME280;25963;42.694;23.600;2023-04-05T08:11:17;94874.06;;;3.22;100.00
40245;BME280;25963;42.694;23.600;2023-04-05T08:13:43;94895.81;;;3.29;100.00
40245;BME280;25963;42.694;23.600;2023-04-05T08:16:10;94894.91;;;3.22;100.00
40245;BME280;25963;42.694;23.600;2023-04-05T08:18:35;94882.88;;;3.06;100.00
40245;BME280;25963;42.694;23.600;2023-04-05T08:21:01;94890.53;;;3.52;100.00
40245;BME280;25963;42.694;23.600;2023-04-05T08:23:27;94904.81;;;3.71;100.00
40245;BME280;25963;42.694;23.600;2023-04-05T08:25:52;94902.69;;;3.74;100.00
40245;BME280;25963;42.694;23.600;2023-04-05T08:28:18;94895.28;;;3.48;100.00
40245;BME280;25963;42.694;23.600;2023-04-05T08:30:44;94893.41;;;3.72;100.00
40245;BME280;25963;42.694;23.600;2023-04-05T08:33:13;94886.03;;;4.11;100.00
40245;BME280;25963;42.694;23.600;2023-04-05T08:35:38;94904.63;;;4.60;100.00
40245;BME280;25963;42.694;23.600;2023-04-05T08:38:06;94913.19;;;4.53;100.00
40245;BME280;25963;42.694;23.600;2023-04-05T08:40:51;94912.97;;;4.91;100.00
40245;BME280;25963;42.694;23.600;2023-04-05T08:46:07;94910.84;;;4.58;100.00
40245;BME280;25963;42.694;23.600;2023-04-05T08:48:33;94913.94;;;4.90;100.00
40245;BME280;25963;42.694;23.600;2023-04-05T08:51:00;94919.38;;;5.17;100.00
40245;BME280;25963;42.694;23.600;2023-04-05T08:53:26;94920.97;;;4.90;100.00
40245;BME280;25963;42.694;23.600;2023-04-05T08:55:54;94912.34;;;5.17;100.00
40245;BME280;25963;42.694;23.600;2023-04-05T08:58:21;94927.16;;;5.32;100.00
40245;BME280;25963;42.694;23.600;2023-04-05T09:00:49;94917.25;;;5.55;100.00
40245;BME280;25963;42.694;23.600;2023-04-05T09:03:17;94917.22;;;5.48;100.00
40245;BME280;25963;42.694;23.600;2023-04-05T09:05:45;94924.25;;;5.48;100.00
40245;BME280;25963;42.694;23.600;2023-04-05T09:08:12;94909.50;;;5.40;100.00
40245;BME280;25963;42.694;23.600;2023-04-05T09:10:39;94932.13;;;5.55;100.00
40245;BME280;25963;42.694;23.600;2023-04-05T09:13:04;94911.97;;;5.20;100.00
40245;BME280;25963;42.694;23.600;2023-04-05T09:15:30;94924.00;;;5.43;100.00
40245;BME280;25963;42.694;23.600;2023-04-05T09:17:56;94924.72;;;5.30;100.00
40245;BME280;25963;42.694;23.600;2023-04-05T09:20:22;94918.44;;;5.24;100.00
40245;BME280;25963;42.694;23.600;2023-04-05T09:22:48;94925.13;;;5.62;100.00
40245;BME280;25963;42.694;23.600;2023-04-05T09:25:35;94927.22;;;5.73;100.00
40245;BME280;25963;42.694;23.600;2023-04-05T09:28:04;94923.97;;;5.36;100.00
40245;BME280;25963;42.694;23.600;2023-04-05T09:30:35;94918.84;;;5.91;100.00
40245;BME280;25963;42.694;23.600;2023-04-05T09:33:07;94936.72;;;6.15;100.00
40245;BME280;25963;42.694;23.600;2023-04-05T09:35:35;94916.97;;;5.71;100.00
40245;BME280;25963;42.694;23.600;2023-04-05T09:38:03;94923.81;;;6.07;100.00
40245;BME280;25963;42.694;23.600;2023-04-05T09:40:45;94932.88;;;5.42;100.00
40245;BME280;25963;42.694;23.600;2023-04-05T09:43:11;94924.84;;;5.78;100.00
40245;BME280;25963;42.694;23.600;2023-04-05T09:45:40;94925.22;;;5.75;100.00
40245;BME280;25963;42.694;23.600;2023-04-05T09:48:07;94924.63;;;5.80;100.00
40245;BME280;25963;42.694;23.600;2023-04-05T09:50:33;94925.44;;;5.80;100.00
40245;BME280;25963;42.694;23.600;2023-04-05T09:53:12;94918.06;;;5.90;100.00
40245;BME280;25963;42.694;23.600;2023-04-05T09:55:41;94921.47;;;5.56;100.00
40245;BME280;25963;42.694;23.600;2023-04-05T09:58:20;94916.63;;;5.88;100.00
40245;BME280;25963;42.694;23.600;2023-04-05T10:00:49;94923.81;;;6.07;100.00
40245;BME280;25963;42.694;23.600;2023-04-05T10:03:19;94939.19;;;6.30;100.00
40245;BME280;25963;42.694;23.600;2023-04-05T10:05:45;94929.63;;;6.03;100.00
40245;BME280;25963;42.694;23.600;2023-04-05T10:08:13;94918.53;;;5.66;100.00
40245;BME280;25963;42.694;23.600;2023-04-05T10:10:46;94923.22;;;6.12;100.00
40245;BME280;25963;42.694;23.600;2023-04-05T10:13:13;94915.88;;;5.94;100.00
40245;BME280;25963;42.694;23.600;2023-04-05T10:15:41;94924.78;;;6.00;100.00
40245;BME280;25963;42.694;23.600;2023-04-05T10:18:17;94917.50;;;5.60;100.00
40245;BME280;25963;42.694;23.600;2023-04-05T10:20:47;94920.38;;;5.72;100.00
40245;BME280;25963;42.694;23.600;2023-04-05T10:23:41;94909.28;;;5.70;100.00
40245;BME280;25963;42.694;23.600;2023-04-05T10:26:31;94885.34;;;5.38;100.00
40245;BME280;25963;42.694;23.600;2023-04-05T10:29:16;94887.31;;;5.64;100.00
40245;BME280;25963;42.694;23.600;2023-04-05T10:31:50;94924.56;;;6.01;99.84
40245;BME280;25963;42.694;23.600;2023-04-05T10:34:32;94909.84;;;6.55;100.00
40245;BME280;25963;42.694;23.600;2023-04-05T10:37:04;94907.44;;;6.60;100.00
40245;BME280;25963;42.694;23.600;2023-04-05T10:39:40;94905.44;;;6.62;100.00
40245;BME280;25963;42.694;23.600;2023-04-05T10:42:12;94903.53;;;6.29;99.67
40245;BME280;25963;42.694;23.600;2023-04-05T10:44:42;94910.47;;;6.63;100.00
40245;BME280;25963;42.694;23.600;2023-04-05T10:47:13;94919.69;;;6.39;97.71
40245;BME280;25963;42.694;23.600;2023-04-05T10:49:48;94926.84;;;6.11;100.00
40245;BME280;25963;42.694;23.600;2023-04-05T10:52:17;94936.38;;;6.25;100.00
40245;BME280;25963;42.694;23.600;2023-04-05T10:54:44;94914.31;;;6.06;100.00
40245;BME280;25963;42.694;23.600;2023-04-05T10:57:12;94927.59;;;6.53;100.00
40245;BME280;25963;42.694;23.600;2023-04-05T10:59:42;94929.66;;;6.84;98.71
40245;BME280;25963;42.694;23.600;2023-04-05T11:02:09;94932.53;;;7.09;100.00
40245;BME280;25963;42.694;23.600;2023-04-05T11:04:35;94901.41;;;7.52;100.00
40245;BME280;25963;42.694;23.600;2023-04-05T11:07:17;94911.88;;;7.72;100.00
40245;BME280;25963;42.694;23.600;2023-04-05T11:18:36;94932.53;;;7.22;93.95
40245;BME280;25963;42.694;23.600;2023-04-05T11:21:08;94926.28;;;7.03;97.71
40245;BME280;25963;42.694;23.600;2023-04-05T11:24:06;94926.06;;;6.98;98.24
40245;BME280;25963;42.694;23.600;2023-04-05T11:29:14;94924.25;;;6.24;97.06
40245;BME280;25963;42.694;23.600;2023-04-05T11:32:10;94935.63;;;6.45;97.90
40245;BME280;25963;42.694;23.600;2023-04-05T11:34:36;94916.34;;;6.04;99.34
40245;BME280;25963;42.694;23.600;2023-04-05T11:37:01;94936.00;;;6.35;100.00
40245;BME280;25963;42.694;23.600;2023-04-05T11:39:28;94937.59;;;6.36;97.32
40245;BME280;25963;42.694;23.600;2023-04-05T11:42:09;94936.56;;;5.89;99.19
40245;BME280;25963;42.694;23.600;2023-04-05T11:44:47;94940.50;;;6.06;97.42
40245;BME280;25963;42.694;23.600;2023-04-05T11:47:16;94941.50;;;5.99;94.63
40245;BME280;25963;42.694;23.600;2023-04-05T11:49:42;94940.56;;;5.85;94.25
40245;BME280;25963;42.694;23.600;2023-04-05T11:52:14;94933.47;;;5.72;96.65
40245;BME280;25963;42.694;23.600;2023-04-05T11:54:40;94939.06;;;5.97;95.56
40245;BME280;25963;42.694;23.600;2023-04-05T11:57:20;94938.69;;;6.07;95.05
40245;BME280;25963;42.694;23.600;2023-04-05T11:59:51;94938.81;;;6.40;96.35
40245;BME280;25963;42.694;23.600;2023-04-05T12:02:17;94935.84;;;6.56;97.26
40245;BME280;25963;42.694;23.600;2023-04-05T12:04:43;94941.25;;;6.35;92.36
40245;BME280;25963;42.694;23.600;2023-04-05T12:09:34;94926.84;;;6.99;91.17
40245;BME280;25963;42.694;23.600;2023-04-05T12:12:00;94933.31;;;7.03;88.86
40245;BME280;25963;42.694;23.600;2023-04-05T12:14:25;94919.28;;;6.43;93.14
40245;BME280;25963;42.694;23.600;2023-04-05T12:16:51;94930.69;;;6.83;91.27
40245;BME280;25963;42.694;23.600;2023-04-05T12:19:17;94926.81;;;6.66;90.45
40245;BME280;25963;42.694;23.600;2023-04-05T12:21:42;94935.69;;;6.78;88.79
40245;BME280;25963;42.694;23.600;2023-04-05T12:24:08;94918.22;;;7.18;93.29
40245;BME280;25963;42.694;23.600;2023-04-05T12:26:34;94937.38;;;7.25;88.77
40245;BME280;25963;42.694;23.600;2023-04-05T12:29:03;94918.81;;;7.27;89.55
40245;BME280;25963;42.694;23.600;2023-04-05T12:31:39;94911.53;;;7.49;92.17
40245;BME280;25963;42.694;23.600;2023-04-05T12:34:05;94930.28;;;6.93;90.35
40245;BME280;25963;42.694;23.600;2023-04-05T12:36:31;94916.88;;;6.48;87.33
40245;BME280;25963;42.694;23.600;2023-04-05T12:38:57;94893.47;;;5.91;91.45
40245;BME280;25963;42.694;23.600;2023-04-05T12:41:29;94920.56;;;6.05;91.31
40245;BME280;25963;42.694;23.600;2023-04-05T12:43:56;94900.53;;;5.91;94.77
40245;BME280;25963;42.694;23.600;2023-04-05T12:49:04;94915.75;;;6.09;92.79
40245;BME280;25963;42.694;23.600;2023-04-05T12:51:30;94931.22;;;6.04;91.55
40245;BME280;25963;42.694;23.600;2023-04-05T12:53:56;94924.63;;;6.08;89.97
40245;BME280;25963;42.694;23.600;2023-04-05T12:56:22;94926.06;;;6.17;93.87
40245;BME280;25963;42.694;23.600;2023-04-05T12:58:48;94930.53;;;6.30;91.52
40245;BME280;25963;42.694;23.600;2023-04-05T13:01:16;94935.84;;;6.56;93.75
40245;BME280;25963;42.694;23.600;2023-04-05T13:03:46;94933.97;;;6.30;93.92
40245;BME280;25963;42.694;23.600;2023-04-05T13:06:11;94936.25;;;5.99;89.51
40245;BME280;25963;42.694;23.600;2023-04-05T13:08:37;94910.75;;;5.86;93.93
40245;BME280;25963;42.694;23.600;2023-04-05T13:11:02;94934.94;;;5.25;91.86
40245;BME280;25963;42.694;23.600;2023-04-05T13:13:28;94932.88;;;5.77;95.78
40245;BME280;25963;42.694;23.600;2023-04-05T13:15:53;94929.06;;;5.79;93.83
40245;BME280;25963;42.694;23.600;2023-04-05T13:18:19;94940.91;;;6.10;91.11
40245;BME280;25963;42.694;23.600;2023-04-05T13:20:45;94945.00;;;5.84;90.50
40245;BME280;25963;42.694;23.600;2023-04-05T13:23:10;94939.31;;;6.09;91.79
40245;BME280;25963;42.694;23.600;2023-04-05T13:25:41;94950.63;;;6.16;92.69
40245;BME280;25963;42.694;23.600;2023-04-05T13:28:07;94946.72;;;5.99;89.89
40245;BME280;25963;42.694;23.600;2023-04-05T13:30:33;94936.94;;;6.14;94.30